createdAt,value
2023-01-13T00:01:18.291Z,100.00
2023-01-13T00:05:21.631Z,100.00
2023-01-13T00:09:25.169Z,100.00
2023-01-13T00:13:28.528Z,100.00
2023-01-13T00:17:31.888Z,100.00
2023-01-13T00:21:36.026Z,100.00
2023-01-13T00:25:39.461Z,100.00
2023-01-13T00:29:42.826Z,100.00
2023-01-13T00:33:46.911Z,100.00
2023-01-13T00:37:50.228Z,100.00
2023-01-13T00:42:11.984Z,100.00
2023-01-13T00:46:18.367Z,100.00
2023-01-13T00:50:21.744Z,100.00
2023-01-13T00:54:25.796Z,100.00
2023-01-13T00:58:31.194Z,100.00
2023-01-13T01:02:34.570Z,100.00
2023-01-13T01:06:38.322Z,100.00
2023-01-13T01:10:41.834Z,100.00
2023-01-13T01:14:45.311Z,100.00
2023-01-13T01:18:50.500Z,100.00
2023-01-13T01:22:53.843Z,100.00
2023-01-13T01:26:57.175Z,100.00
2023-01-13T01:31:00.690Z,100.00
2023-01-13T01:35:05.208Z,100.00
2023-01-13T01:39:08.610Z,100.00
2023-01-13T01:43:39.999Z,100.00
2023-01-13T01:47:43.596Z,100.00
2023-01-13T01:51:59.018Z,100.00
2023-01-13T01:56:03.778Z,100.00
2023-01-13T02:00:07.958Z,100.00
2023-01-13T02:04:23.527Z,100.00
2023-01-13T02:08:26.868Z,100.00
2023-01-13T02:12:30.594Z,100.00
2023-01-13T02:16:34.131Z,100.00
2023-01-13T02:20:56.889Z,100.00
2023-01-13T02:25:20.678Z,100.00
2023-01-13T02:30:04.963Z,100.00
2023-01-13T02:34:20.967Z,100.00
2023-01-13T02:38:31.783Z,100.00
2023-01-13T02:42:59.604Z,100.00
2023-01-13T02:47:19.211Z,100.00
2023-01-13T02:51:27.374Z,100.00
2023-01-13T02:55:36.554Z,100.00
2023-01-13T02:59:41.216Z,100.00
2023-01-13T03:03:44.866Z,100.00
2023-01-13T03:08:15.881Z,100.00
2023-01-13T03:12:32.870Z,100.00
2023-01-13T03:16:58.509Z,100.00
2023-01-13T03:21:11.997Z,100.00
2023-01-13T03:25:26.484Z,100.00
2023-01-13T03:30:14.409Z,100.00
2023-01-13T03:34:22.727Z,100.00
2023-01-13T03:38:32.991Z,100.00
2023-01-13T03:42:38.607Z,100.00
2023-01-13T03:46:45.221Z,100.00
2023-01-13T03:50:52.462Z,100.00
2023-01-13T03:55:02.044Z,100.00
2023-01-13T03:59:08.270Z,100.00
2023-01-13T04:03:20.316Z,100.00
2023-01-13T04:07:38.869Z,100.00
2023-01-13T04:11:59.176Z,100.00
2023-01-13T04:16:02.729Z,100.00
2023-01-13T04:20:06.653Z,100.00
2023-01-13T04:24:10.285Z,100.00
2023-01-13T04:28:14.633Z,100.00
2023-01-13T04:32:18.039Z,100.00
2023-01-13T04:36:25.453Z,100.00
2023-01-13T04:40:28.739Z,100.00
2023-01-13T04:44:35.484Z,100.00
2023-01-13T04:48:38.764Z,100.00
2023-01-13T04:52:42.023Z,100.00
2023-01-13T04:56:45.327Z,100.00
2023-01-13T05:00:50.885Z,100.00
2023-01-13T05:04:54.245Z,100.00
2023-01-13T05:08:57.648Z,100.00
2023-01-13T05:13:19.653Z,100.00
2023-01-13T05:17:25.357Z,100.00
2023-01-13T05:21:46.980Z,100.00
2023-01-13T05:25:51.319Z,100.00
2023-01-13T05:29:56.488Z,100.00
2023-01-13T05:33:59.812Z,100.00
2023-01-13T05:38:03.091Z,100.00
2023-01-13T05:42:25.240Z,100.00
2023-01-13T05:46:28.565Z,100.00
2023-01-13T05:50:31.927Z,100.00
2023-01-13T05:54:41.426Z,100.00
2023-01-13T05:58:45.061Z,100.00
2023-01-13T06:02:49.881Z,100.00
2023-01-13T06:06:53.268Z,100.00
2023-01-13T06:10:56.752Z,100.00
2023-01-13T06:14:59.997Z,100.00
2023-01-13T06:19:03.294Z,100.00
2023-01-13T06:23:11.020Z,100.00
2023-01-13T06:27:15.636Z,100.00
2023-01-13T06:31:19.799Z,100.00
2023-01-13T06:35:28.691Z,100.00
2023-01-13T06:39:32.449Z,100.00
2023-01-13T06:43:36.115Z,100.00
2023-01-13T06:47:41.142Z,100.00
2023-01-13T06:51:44.456Z,100.00
2023-01-13T06:55:47.740Z,100.00
2023-01-13T06:59:51.081Z,100.00
2023-01-13T07:03:54.325Z,100.00
2023-01-13T07:07:57.596Z,100.00
2023-01-13T07:12:00.866Z,100.00
2023-01-13T07:16:06.602Z,100.00
2023-01-13T07:20:10.870Z,100.00
2023-01-13T07:24:14.258Z,100.00
2023-01-13T07:28:17.950Z,100.00
2023-01-13T07:32:21.568Z,100.00
2023-01-13T07:36:24.798Z,100.00
2023-01-13T07:40:28.154Z,100.00
2023-01-13T07:44:31.591Z,100.00
2023-01-13T07:48:35.356Z,100.00
2023-01-13T07:52:38.677Z,100.00
2023-01-13T07:56:41.975Z,100.00
2023-01-13T08:00:45.219Z,100.00
2023-01-13T08:04:48.482Z,100.00
2023-01-13T08:08:52.036Z,100.00
2023-01-13T08:13:13.986Z,99.95
2023-01-13T08:17:19.157Z,99.86
2023-01-13T08:21:23.761Z,99.77
2023-01-13T08:25:28.728Z,99.80
2023-01-13T08:29:32.046Z,99.76
2023-01-13T08:33:38.044Z,99.64
2023-01-13T08:37:41.708Z,99.55
2023-01-13T08:41:57.792Z,99.52
2023-01-13T08:46:05.015Z,99.57
2023-01-13T08:50:09.370Z,99.50
2023-01-13T08:54:13.468Z,99.48
2023-01-13T08:58:16.729Z,99.37
2023-01-13T09:02:22.147Z,99.33
2023-01-13T09:06:25.457Z,99.32
2023-01-13T09:10:28.702Z,99.30
2023-01-13T09:14:34.549Z,99.28
2023-01-13T09:18:37.764Z,99.26
2023-01-13T09:22:41.709Z,99.15
2023-01-13T09:26:45.161Z,99.09
2023-01-13T09:30:48.393Z,99.01
2023-01-13T09:35:00.833Z,98.85
2023-01-13T09:39:04.508Z,98.80
2023-01-13T09:43:36.038Z,98.82
2023-01-13T09:47:51.484Z,98.57
2023-01-13T09:52:12.426Z,98.59
2023-01-13T09:56:15.736Z,98.52
2023-01-13T10:00:25.626Z,98.43
2023-01-13T10:04:28.929Z,98.34
2023-01-13T10:08:35.674Z,98.22
2023-01-13T10:12:58.509Z,98.10
2023-01-13T10:17:23.852Z,97.96
2023-01-13T10:21:49.011Z,97.89
2023-01-13T10:26:24.321Z,97.85
2023-01-13T10:30:34.388Z,97.80
2023-01-13T10:34:51.662Z,97.73
2023-01-13T10:39:08.807Z,97.74
2023-01-13T10:43:12.043Z,97.77
2023-01-13T10:47:22.931Z,97.67
2023-01-13T10:51:26.067Z,97.67
2023-01-13T10:55:37.165Z,97.52
2023-01-13T10:59:40.408Z,97.47
2023-01-13T11:03:45.433Z,97.47
2023-01-13T11:07:52.767Z,97.46
2023-01-13T11:11:57.338Z,97.43
2023-01-13T11:16:14.181Z,97.47
2023-01-13T11:20:46.806Z,97.38
2023-01-13T11:24:59.040Z,97.45
2023-01-13T11:29:17.991Z,97.47
2023-01-13T11:34:11.010Z,97.53
2023-01-13T11:38:31.237Z,97.70
2023-01-13T11:42:59.359Z,97.69
2023-01-13T11:47:02.982Z,97.84
2023-01-13T11:51:15.284Z,97.82
2023-01-13T11:55:47.710Z,97.92
2023-01-13T12:00:12.384Z,98.03
2023-01-13T12:04:23.813Z,98.13
2023-01-13T12:08:54.927Z,98.20
2023-01-13T12:13:40.615Z,98.17
2023-01-13T12:17:56.228Z,98.24
2023-01-13T12:22:11.808Z,98.28
2023-01-13T12:26:17.225Z,98.23
2023-01-13T12:30:46.021Z,98.44
2023-01-13T12:35:27.741Z,98.34
2023-01-13T12:39:58.990Z,98.42
2023-01-13T12:44:18.261Z,98.37
2023-01-13T12:48:44.834Z,98.34
2023-01-13T12:52:49.740Z,98.27
2023-01-13T12:56:54.243Z,98.33
2023-01-13T13:01:01.028Z,98.37
2023-01-13T13:05:23.152Z,98.36
2023-01-13T13:09:31.924Z,98.41
2023-01-13T13:13:49.252Z,98.39
2023-01-13T13:18:13.973Z,98.34
2023-01-13T13:22:21.216Z,98.27
2023-01-13T13:26:37.155Z,98.25
2023-01-13T13:30:50.354Z,98.12
2023-01-13T13:35:05.679Z,97.99
2023-01-13T13:39:41.213Z,97.97
2023-01-13T13:44:05.103Z,97.91
2023-01-13T13:48:28.091Z,97.98
2023-01-13T13:52:42.774Z,97.92
2023-01-13T13:56:47.944Z,97.72
2023-01-13T14:00:51.477Z,97.53
2023-01-13T14:05:19.181Z,97.49
2023-01-13T14:09:23.944Z,97.41
2023-01-13T14:13:29.624Z,97.28
2023-01-13T14:17:34.770Z,97.13
2023-01-13T14:21:38.741Z,97.11
2023-01-13T14:25:52.363Z,97.07
2023-01-13T14:29:58.521Z,97.20
2023-01-13T14:34:31.196Z,96.98
2023-01-13T14:38:27.009Z,96.93
2023-01-13T14:42:31.756Z,96.91
2023-01-13T14:46:40.496Z,96.90
2023-01-13T14:50:46.778Z,96.99
2023-01-13T14:54:53.170Z,96.87
2023-01-13T14:58:56.741Z,96.80
2023-01-13T15:03:08.448Z,96.85
2023-01-13T15:07:26.573Z,96.89
2023-01-13T15:11:29.951Z,96.89
2023-01-13T15:15:35.458Z,96.76
2023-01-13T15:19:38.738Z,96.65
2023-01-13T15:23:42.854Z,96.53
2023-01-13T15:27:50.859Z,96.59
2023-01-13T15:31:54.183Z,96.48
2023-01-13T15:35:57.549Z,96.61
2023-01-13T15:40:01.013Z,96.61
2023-01-13T15:44:23.118Z,96.48
2023-01-13T15:48:30.946Z,96.46
2023-01-13T15:52:34.266Z,96.46
2023-01-13T15:56:39.362Z,96.44
2023-01-13T16:00:43.119Z,96.42
2023-01-13T16:04:46.420Z,96.38
2023-01-13T16:08:49.699Z,96.33
2023-01-13T16:12:55.953Z,96.29
2023-01-13T16:16:59.530Z,96.33
2023-01-13T16:21:02.812Z,96.15
2023-01-13T16:25:06.504Z,96.15
2023-01-13T16:29:09.979Z,96.18
2023-01-13T16:33:13.736Z,96.28
2023-01-13T16:37:23.084Z,96.16
2023-01-13T16:41:26.960Z,96.12
2023-01-13T16:45:31.373Z,96.25
2023-01-13T16:49:35.128Z,96.27
2023-01-13T16:53:38.532Z,96.22
2023-01-13T16:57:42.411Z,96.27
2023-01-13T17:01:46.013Z,96.27
2023-01-13T17:05:49.282Z,96.25
2023-01-13T17:09:52.937Z,96.07
2023-01-13T17:13:56.309Z,96.11
2023-01-13T17:17:59.538Z,96.12
2023-01-13T17:22:02.828Z,96.17
2023-01-13T17:26:06.375Z,96.23
2023-01-13T17:30:11.315Z,96.14
2023-01-13T17:34:15.145Z,96.05
2023-01-13T17:38:18.478Z,96.03
2023-01-13T17:42:24.609Z,96.06
2023-01-13T17:46:28.205Z,96.09
2023-01-13T17:50:34.345Z,95.98
2023-01-13T17:54:37.989Z,96.03
2023-01-13T17:58:42.323Z,95.99
2023-01-13T18:02:46.099Z,95.94
2023-01-13T18:06:50.505Z,95.97
2023-01-13T18:10:55.373Z,95.95
2023-01-13T18:14:59.840Z,95.93
2023-01-13T18:19:22.947Z,95.74
2023-01-13T18:23:45.178Z,95.88
2023-01-13T18:27:48.810Z,95.82
2023-01-13T18:31:52.970Z,95.77
2023-01-13T18:35:56.655Z,95.76
2023-01-13T18:40:00.283Z,95.71
2023-01-13T18:44:03.867Z,95.68
2023-01-13T18:48:07.413Z,95.78
2023-01-13T18:52:11.270Z,95.79
2023-01-13T18:56:14.668Z,95.68
2023-01-13T19:00:20.603Z,95.72
2023-01-13T19:04:24.025Z,95.70
2023-01-13T19:08:27.573Z,95.60
2023-01-13T19:12:31.255Z,95.62
2023-01-13T19:16:35.101Z,95.80
2023-01-13T19:20:38.445Z,95.71
2023-01-13T19:24:44.637Z,95.66
2023-01-13T19:28:48.870Z,95.61
2023-01-13T19:32:54.084Z,95.71
2023-01-13T19:36:57.911Z,95.69
2023-01-13T19:41:07.051Z,95.81
2023-01-13T19:45:29.719Z,95.68
2023-01-13T19:49:33.884Z,95.63
2023-01-13T19:53:37.181Z,95.62
2023-01-13T19:57:41.125Z,95.65
2023-01-13T20:01:44.639Z,95.63
2023-01-13T20:05:48.083Z,95.64
2023-01-13T20:09:56.438Z,95.55
2023-01-13T20:14:01.264Z,95.49
2023-01-13T20:18:04.673Z,95.46
2023-01-13T20:22:09.216Z,95.47
2023-01-13T20:26:12.523Z,95.77
2023-01-13T20:30:16.171Z,95.63
2023-01-13T20:34:19.993Z,95.60
2023-01-13T20:38:23.251Z,95.61
2023-01-13T20:42:29.439Z,95.66
2023-01-13T20:46:32.921Z,95.80
2023-01-13T20:50:36.170Z,95.77
2023-01-13T20:54:41.024Z,95.73
2023-01-13T20:58:44.425Z,95.78
2023-01-13T21:02:47.812Z,95.76
2023-01-13T21:06:51.274Z,95.97
2023-01-13T21:11:04.689Z,95.91
2023-01-13T21:15:17.909Z,96.00
2023-01-13T21:19:21.203Z,96.02
2023-01-13T21:23:24.515Z,96.06
2023-01-13T21:27:28.162Z,96.22
2023-01-13T21:31:31.503Z,96.28
2023-01-13T21:35:39.005Z,96.38
2023-01-13T21:39:43.203Z,96.36
2023-01-13T21:44:05.822Z,96.28
2023-01-13T21:48:09.444Z,96.37
2023-01-13T21:52:13.883Z,96.60
2023-01-13T21:56:17.129Z,96.84
2023-01-13T22:00:22.621Z,96.77
2023-01-13T22:04:25.952Z,96.68
2023-01-13T22:08:29.402Z,96.60
2023-01-13T22:12:32.848Z,96.47
2023-01-13T22:16:39.515Z,96.34
2023-01-13T22:20:42.787Z,96.42
2023-01-13T22:24:47.923Z,96.55
2023-01-13T22:28:51.824Z,96.78
2023-01-13T22:32:55.249Z,97.01
2023-01-13T22:36:59.708Z,97.00
2023-01-13T22:41:09.107Z,97.11
2023-01-13T22:45:13.684Z,97.20
2023-01-13T22:49:17.934Z,97.13
2023-01-13T22:53:21.969Z,97.11
2023-01-13T22:57:25.179Z,96.95
2023-01-13T23:01:31.122Z,97.00
2023-01-13T23:05:34.923Z,97.16
2023-01-13T23:09:38.124Z,97.28
2023-01-13T23:13:43.448Z,97.42
2023-01-13T23:17:50.461Z,97.55
2023-01-13T23:21:53.784Z,97.52
2023-01-13T23:25:57.020Z,97.56
2023-01-13T23:30:01.504Z,97.61
2023-01-13T23:34:04.954Z,97.63
2023-01-13T23:38:08.150Z,97.42
2023-01-13T23:42:11.385Z,97.19
2023-01-13T23:46:16.768Z,96.94
2023-01-13T23:50:20.008Z,96.67
2023-01-13T23:54:23.316Z,97.06
2023-01-13T23:58:27.996Z,97.13
